sensor_id;sensor_type;location;lat;lon;timestamp;P1;durP1;ratioP1;P2;durP2;ratioP2
46651;SDS011;32377;52.182;5.398;2022-12-24T00:00:21;38.53;;;5.70;;
46651;SDS011;32377;52.182;5.398;2022-12-24T00:02:48;48.28;;;5.53;;
46651;SDS011;32377;52.182;5.398;2022-12-24T00:05:14;35.88;;;6.13;;
46651;SDS011;32377;52.182;5.398;2022-12-24T00:07:40;46.20;;;6.90;;
46651;SDS011;32377;52.182;5.398;2022-12-24T00:10:06;40.38;;;6.28;;
46651;SDS011;32377;52.182;5.398;2022-12-24T00:12:32;49.63;;;7.97;;
46651;SDS011;32377;52.182;5.398;2022-12-24T00:14:57;45.97;;;6.53;;
46651;SDS011;32377;52.182;5.398;2022-12-24T00:17:23;29.83;;;6.32;;
46651;SDS011;32377;52.182;5.398;2022-12-24T00:19:48;53.47;;;6.95;;
46651;SDS011;32377;52.182;5.398;2022-12-24T00:22:14;39.00;;;6.43;;
46651;SDS011;32377;52.182;5.398;2022-12-24T00:24:40;42.45;;;5.72;;
46651;SDS011;32377;52.182;5.398;2022-12-24T00:27:05;56.25;;;7.60;;
46651;SDS011;32377;52.182;5.398;2022-12-24T00:29:31;45.92;;;7.35;;
46651;SDS011;32377;52.182;5.398;2022-12-24T00:31:57;43.70;;;6.30;;
46651;SDS011;32377;52.182;5.398;2022-12-24T00:34:23;45.85;;;6.65;;
46651;SDS011;32377;52.182;5.398;2022-12-24T00:36:50;50.85;;;6.95;;
46651;SDS011;32377;52.182;5.398;2022-12-24T00:39:16;46.90;;;7.32;;
46651;SDS011;32377;52.182;5.398;2022-12-24T00:41:42;37.05;;;6.55;;
46651;SDS011;32377;52.182;5.398;2022-12-24T00:44:07;47.25;;;7.38;;
46651;SDS011;32377;52.182;5.398;2022-12-24T00:46:37;47.50;;;6.55;;
46651;SDS011;32377;52.182;5.398;2022-12-24T00:49:05;39.95;;;7.22;;
46651;SDS011;32377;52.182;5.398;2022-12-24T00:51:31;46.40;;;6.60;;
46651;SDS011;32377;52.182;5.398;2022-12-24T00:53:58;44.47;;;7.18;;
46651;SDS011;32377;52.182;5.398;2022-12-24T00:56:23;45.95;;;6.80;;
46651;SDS011;32377;52.182;5.398;2022-12-24T00:58:49;43.53;;;7.25;;
46651;SDS011;32377;52.182;5.398;2022-12-24T01:01:15;35.60;;;6.22;;
46651;SDS011;32377;52.182;5.398;2022-12-24T01:03:42;46.88;;;7.68;;
46651;SDS011;32377;52.182;5.398;2022-12-24T01:06:18;33.58;;;6.55;;
46651;SDS011;32377;52.182;5.398;2022-12-24T01:08:45;46.88;;;7.07;;
46651;SDS011;32377;52.182;5.398;2022-12-24T01:11:11;53.70;;;8.43;;
46651;SDS011;32377;52.182;5.398;2022-12-24T01:13:37;46.78;;;7.95;;
46651;SDS011;32377;52.182;5.398;2022-12-24T01:16:10;59.38;;;6.90;;
46651;SDS011;32377;52.182;5.398;2022-12-24T01:18:41;39.30;;;6.25;;
46651;SDS011;32377;52.182;5.398;2022-12-24T01:21:07;45.83;;;6.82;;
46651;SDS011;32377;52.182;5.398;2022-12-24T01:23:33;37.58;;;6.93;;
46651;SDS011;32377;52.182;5.398;2022-12-24T01:25:59;53.10;;;7.13;;
46651;SDS011;32377;52.182;5.398;2022-12-24T01:28:26;47.92;;;6.60;;
46651;SDS011;32377;52.182;5.398;2022-12-24T01:30:52;54.20;;;7.63;;
46651;SDS011;32377;52.182;5.398;2022-12-24T01:33:17;41.33;;;6.57;;
46651;SDS011;32377;52.182;5.398;2022-12-24T01:35:43;48.65;;;7.80;;
46651;SDS011;32377;52.182;5.398;2022-12-24T01:38:10;40.88;;;6.53;;
46651;SDS011;32377;52.182;5.398;2022-12-24T01:40:40;43.17;;;7.30;;
46651;SDS011;32377;52.182;5.398;2022-12-24T01:43:26;43.50;;;7.15;;
46651;SDS011;32377;52.182;5.398;2022-12-24T01:45:57;45.90;;;8.27;;
46651;SDS011;32377;52.182;5.398;2022-12-24T01:54:09;60.00;;;8.05;;
46651;SDS011;32377;52.182;5.398;2022-12-24T01:56:36;59.38;;;7.32;;
46651;SDS011;32377;52.182;5.398;2022-12-24T01:59:08;56.75;;;7.43;;
46651;SDS011;32377;52.182;5.398;2022-12-24T02:01:37;48.05;;;7.63;;
46651;SDS011;32377;52.182;5.398;2022-12-24T02:04:04;50.60;;;7.97;;
46651;SDS011;32377;52.182;5.398;2022-12-24T02:06:39;41.13;;;6.25;;
46651;SDS011;32377;52.182;5.398;2022-12-24T02:09:05;51.70;;;6.93;;
46651;SDS011;32377;52.182;5.398;2022-12-24T02:11:31;56.92;;;8.10;;
46651;SDS011;32377;52.182;5.398;2022-12-24T02:13:58;53.20;;;8.55;;
46651;SDS011;32377;52.182;5.398;2022-12-24T02:25:18;54.55;;;7.13;;
46651;SDS011;32377;52.182;5.398;2022-12-24T02:30:15;47.20;;;8.02;;
46651;SDS011;32377;52.182;5.398;2022-12-24T02:32:56;51.75;;;7.70;;
46651;SDS011;32377;52.182;5.398;2022-12-24T02:38:35;55.10;;;7.70;;
46651;SDS011;32377;52.182;5.398;2022-12-24T02:41:08;46.35;;;7.40;;
46651;SDS011;32377;52.182;5.398;2022-12-24T02:43:39;51.88;;;8.00;;
46651;SDS011;32377;52.182;5.398;2022-12-24T02:46:11;55.20;;;8.43;;
46651;SDS011;32377;52.182;5.398;2022-12-24T02:48:41;44.90;;;7.85;;
46651;SDS011;32377;52.182;5.398;2022-12-24T02:51:11;63.45;;;7.47;;
46651;SDS011;32377;52.182;5.398;2022-12-24T02:53:37;48.15;;;7.40;;
46651;SDS011;32377;52.182;5.398;2022-12-24T02:58:41;58.88;;;8.80;;
46651;SDS011;32377;52.182;5.398;2022-12-24T03:06:32;58.60;;;7.80;;
46651;SDS011;32377;52.182;5.398;2022-12-24T03:09:27;49.92;;;8.70;;
46651;SDS011;32377;52.182;5.398;2022-12-24T03:12:06;63.40;;;7.97;;
46651;SDS011;32377;52.182;5.398;2022-12-24T03:14:36;57.13;;;8.05;;
46651;SDS011;32377;52.182;5.398;2022-12-24T03:17:04;53.75;;;6.57;;
46651;SDS011;32377;52.182;5.398;2022-12-24T03:19:30;56.72;;;7.55;;
46651;SDS011;32377;52.182;5.398;2022-12-24T03:21:56;53.63;;;8.32;;
46651;SDS011;32377;52.182;5.398;2022-12-24T03:24:24;59.22;;;7.88;;
46651;SDS011;32377;52.182;5.398;2022-12-24T03:26:49;53.65;;;8.05;;
46651;SDS011;32377;52.182;5.398;2022-12-24T03:29:16;43.10;;;6.68;;
46651;SDS011;32377;52.182;5.398;2022-12-24T03:31:43;48.38;;;7.03;;
46651;SDS011;32377;52.182;5.398;2022-12-24T03:34:13;44.65;;;7.28;;
46651;SDS011;32377;52.182;5.398;2022-12-24T03:36:39;61.85;;;8.73;;
46651;SDS011;32377;52.182;5.398;2022-12-24T03:39:05;63.53;;;9.07;;
46651;SDS011;32377;52.182;5.398;2022-12-24T03:41:32;59.47;;;9.45;;
46651;SDS011;32377;52.182;5.398;2022-12-24T03:43:57;56.05;;;7.47;;
46651;SDS011;32377;52.182;5.398;2022-12-24T03:46:23;48.03;;;7.57;;
46651;SDS011;32377;52.182;5.398;2022-12-24T03:48:48;45.40;;;6.28;;
46651;SDS011;32377;52.182;5.398;2022-12-24T03:51:18;55.47;;;7.43;;
46651;SDS011;32377;52.182;5.398;2022-12-24T03:53:45;57.88;;;8.55;;
46651;SDS011;32377;52.182;5.398;2022-12-24T03:56:11;50.97;;;7.70;;
46651;SDS011;32377;52.182;5.398;2022-12-24T03:58:37;52.17;;;7.20;;
46651;SDS011;32377;52.182;5.398;2022-12-24T04:01:02;48.90;;;8.40;;
46651;SDS011;32377;52.182;5.398;2022-12-24T04:03:28;56.92;;;7.60;;
46651;SDS011;32377;52.182;5.398;2022-12-24T04:08:30;46.75;;;8.32;;
46651;SDS011;32377;52.182;5.398;2022-12-24T04:10:56;65.18;;;7.53;;
46651;SDS011;32377;52.182;5.398;2022-12-24T04:13:22;63.47;;;8.10;;
46651;SDS011;32377;52.182;5.398;2022-12-24T04:16:01;52.42;;;7.80;;
46651;SDS011;32377;52.182;5.398;2022-12-24T04:18:28;51.33;;;8.52;;
46651;SDS011;32377;52.182;5.398;2022-12-24T04:20:54;60.75;;;8.65;;
46651;SDS011;32377;52.182;5.398;2022-12-24T04:23:20;51.00;;;8.88;;
46651;SDS011;32377;52.182;5.398;2022-12-24T04:25:46;62.58;;;8.93;;
46651;SDS011;32377;52.182;5.398;2022-12-24T04:28:12;47.15;;;6.93;;
46651;SDS011;32377;52.182;5.398;2022-12-24T04:30:38;79.95;;;9.13;;
46651;SDS011;32377;52.182;5.398;2022-12-24T04:33:05;55.40;;;8.15;;
46651;SDS011;32377;52.182;5.398;2022-12-24T04:35:31;66.05;;;10.02;;
46651;SDS011;32377;52.182;5.398;2022-12-24T04:37:56;51.65;;;8.15;;
46651;SDS011;32377;52.182;5.398;2022-12-24T04:40:22;45.58;;;8.02;;
46651;SDS011;32377;52.182;5.398;2022-12-24T04:42:48;71.82;;;9.00;;
46651;SDS011;32377;52.182;5.398;2022-12-24T04:45:14;71.00;;;9.27;;
46651;SDS011;32377;52.182;5.398;2022-12-24T04:47:43;69.57;;;8.40;;
46651;SDS011;32377;52.182;5.398;2022-12-24T04:50:09;57.40;;;9.02;;
46651;SDS011;32377;52.182;5.398;2022-12-24T04:52:35;63.15;;;8.60;;
46651;SDS011;32377;52.182;5.398;2022-12-24T04:55:01;52.60;;;8.00;;
46651;SDS011;32377;52.182;5.398;2022-12-24T04:57:27;65.35;;;9.57;;
46651;SDS011;32377;52.182;5.398;2022-12-24T04:59:55;54.92;;;7.82;;
46651;SDS011;32377;52.182;5.398;2022-12-24T05:02:21;59.75;;;8.13;;
46651;SDS011;32377;52.182;5.398;2022-12-24T05:04:46;70.28;;;9.32;;
46651;SDS011;32377;52.182;5.398;2022-12-24T05:07:12;65.15;;;8.38;;
46651;SDS011;32377;52.182;5.398;2022-12-24T05:09:38;55.72;;;7.18;;
46651;SDS011;32377;52.182;5.398;2022-12-24T05:12:03;66.97;;;8.07;;
46651;SDS011;32377;52.182;5.398;2022-12-24T05:14:29;56.25;;;7.43;;
46651;SDS011;32377;52.182;5.398;2022-12-24T05:16:55;58.75;;;8.45;;
46651;SDS011;32377;52.182;5.398;2022-12-24T05:19:20;68.90;;;8.80;;
46651;SDS011;32377;52.182;5.398;2022-12-24T05:21:46;58.92;;;8.00;;
46651;SDS011;32377;52.182;5.398;2022-12-24T05:24:32;49.25;;;8.07;;
46651;SDS011;32377;52.182;5.398;2022-12-24T05:27:16;71.70;;;8.35;;
46651;SDS011;32377;52.182;5.398;2022-12-24T05:29:41;62.50;;;7.68;;
46651;SDS011;32377;52.182;5.398;2022-12-24T05:32:07;58.42;;;7.35;;
46651;SDS011;32377;52.182;5.398;2022-12-24T05:34:32;50.95;;;7.50;;
46651;SDS011;32377;52.182;5.398;2022-12-24T05:36:58;54.67;;;8.35;;
46651;SDS011;32377;52.182;5.398;2022-12-24T05:39:24;60.17;;;8.57;;
46651;SDS011;32377;52.182;5.398;2022-12-24T05:41:50;51.90;;;7.53;;
46651;SDS011;32377;52.182;5.398;2022-12-24T05:44:16;59.42;;;7.55;;
46651;SDS011;32377;52.182;5.398;2022-12-24T05:46:41;63.55;;;8.65;;
46651;SDS011;32377;52.182;5.398;2022-12-24T05:49:07;56.53;;;8.18;;
46651;SDS011;32377;52.182;5.398;2022-12-24T05:51:33;46.20;;;7.22;;
46651;SDS011;32377;52.182;5.398;2022-12-24T05:53:59;51.22;;;7.47;;
46651;SDS011;32377;52.182;5.398;2022-12-24T05:56:25;47.85;;;6.57;;
46651;SDS011;32377;52.182;5.398;2022-12-24T05:58:51;50.67;;;6.78;;
46651;SDS011;32377;52.182;5.398;2022-12-24T06:01:18;42.97;;;7.85;;
46651;SDS011;32377;52.182;5.398;2022-12-24T06:03:45;43.60;;;8.18;;
46651;SDS011;32377;52.182;5.398;2022-12-24T06:06:14;57.47;;;8.23;;
46651;SDS011;32377;52.182;5.398;2022-12-24T06:08:45;57.17;;;7.50;;
46651;SDS011;32377;52.182;5.398;2022-12-24T06:11:13;55.75;;;6.68;;
46651;SDS011;32377;52.182;5.398;2022-12-24T06:13:41;43.28;;;7.05;;
46651;SDS011;32377;52.182;5.398;2022-12-24T06:16:08;54.42;;;7.10;;
46651;SDS011;32377;52.182;5.398;2022-12-24T06:18:36;53.13;;;8.30;;
46651;SDS011;32377;52.182;5.398;2022-12-24T06:21:02;47.72;;;7.55;;
46651;SDS011;32377;52.182;5.398;2022-12-24T06:23:29;45.30;;;7.35;;
46651;SDS011;32377;52.182;5.398;2022-12-24T06:25:56;62.38;;;7.88;;
46651;SDS011;32377;52.182;5.398;2022-12-24T06:28:25;50.45;;;7.20;;
46651;SDS011;32377;52.182;5.398;2022-12-24T06:30:55;53.03;;;7.68;;
46651;SDS011;32377;52.182;5.398;2022-12-24T06:33:20;58.53;;;9.07;;
46651;SDS011;32377;52.182;5.398;2022-12-24T06:35:46;56.25;;;8.13;;
46651;SDS011;32377;52.182;5.398;2022-12-24T06:38:13;62.47;;;9.98;;
46651;SDS011;32377;52.182;5.398;2022-12-24T06:40:39;45.97;;;8.60;;
46651;SDS011;32377;52.182;5.398;2022-12-24T06:43:06;68.40;;;8.80;;
46651;SDS011;32377;52.182;5.398;2022-12-24T06:45:32;74.97;;;9.95;;
46651;SDS011;32377;52.182;5.398;2022-12-24T06:47:58;69.38;;;10.43;;
46651;SDS011;32377;52.182;5.398;2022-12-24T06:50:25;66.45;;;9.65;;
46651;SDS011;32377;52.182;5.398;2022-12-24T06:52:50;61.40;;;10.32;;
46651;SDS011;32377;52.182;5.398;2022-12-24T06:55:16;60.80;;;8.88;;
46651;SDS011;32377;52.182;5.398;2022-12-24T06:57:42;63.47;;;10.40;;
46651;SDS011;32377;52.182;5.398;2022-12-24T07:00:08;77.50;;;10.13;;
46651;SDS011;32377;52.182;5.398;2022-12-24T07:02:37;79.60;;;10.52;;
46651;SDS011;32377;52.182;5.398;2022-12-24T07:05:07;73.97;;;9.80;;
46651;SDS011;32377;52.182;5.398;2022-12-24T07:07:35;80.70;;;11.35;;
46651;SDS011;32377;52.182;5.398;2022-12-24T07:10:05;72.40;;;10.90;;
46651;SDS011;32377;52.182;5.398;2022-12-24T07:12:32;75.93;;;11.90;;
46651;SDS011;32377;52.182;5.398;2022-12-24T07:14:58;79.90;;;10.55;;
46651;SDS011;32377;52.182;5.398;2022-12-24T07:17:24;74.38;;;11.30;;
46651;SDS011;32377;52.182;5.398;2022-12-24T07:19:49;77.47;;;11.35;;
46651;SDS011;32377;52.182;5.398;2022-12-24T07:22:15;77.60;;;10.85;;
46651;SDS011;32377;52.182;5.398;2022-12-24T07:24:40;66.10;;;10.40;;
46651;SDS011;32377;52.182;5.398;2022-12-24T07:27:06;66.85;;;9.68;;
46651;SDS011;32377;52.182;5.398;2022-12-24T07:29:32;73.85;;;11.38;;
46651;SDS011;32377;52.182;5.398;2022-12-24T07:31:58;81.93;;;10.00;;
46651;SDS011;32377;52.182;5.398;2022-12-24T07:34:24;78.35;;;10.10;;
46651;SDS011;32377;52.182;5.398;2022-12-24T07:36:49;79.03;;;9.95;;
46651;SDS011;32377;52.182;5.398;2022-12-24T07:39:15;74.15;;;10.40;;
46651;SDS011;32377;52.182;5.398;2022-12-24T07:41:40;78.00;;;11.07;;
46651;SDS011;32377;52.182;5.398;2022-12-24T07:44:09;77.13;;;10.20;;
46651;SDS011;32377;52.182;5.398;2022-12-24T07:46:37;83.28;;;9.52;;
46651;SDS011;32377;52.182;5.398;2022-12-24T07:49:03;66.53;;;9.88;;
46651;SDS011;32377;52.182;5.398;2022-12-24T07:51:28;69.90;;;10.80;;
46651;SDS011;32377;52.182;5.398;2022-12-24T07:53:54;78.00;;;9.63;;
46651;SDS011;32377;52.182;5.398;2022-12-24T07:56:20;75.03;;;10.13;;
46651;SDS011;32377;52.182;5.398;2022-12-24T07:58:45;73.10;;;11.02;;
46651;SDS011;32377;52.182;5.398;2022-12-24T08:01:11;67.55;;;10.75;;
46651;SDS011;32377;52.182;5.398;2022-12-24T08:03:36;67.35;;;10.98;;
46651;SDS011;32377;52.182;5.398;2022-12-24T08:06:02;70.90;;;10.88;;
46651;SDS011;32377;52.182;5.398;2022-12-24T08:08:28;66.07;;;9.23;;
46651;SDS011;32377;52.182;5.398;2022-12-24T08:10:56;70.80;;;10.25;;
46651;SDS011;32377;52.182;5.398;2022-12-24T08:13:25;73.80;;;10.90;;
46651;SDS011;32377;52.182;5.398;2022-12-24T08:15:51;73.65;;;10.55;;
46651;SDS011;32377;52.182;5.398;2022-12-24T08:18:16;62.30;;;9.20;;
46651;SDS011;32377;52.182;5.398;2022-12-24T08:20:42;74.95;;;10.05;;
46651;SDS011;32377;52.182;5.398;2022-12-24T08:23:08;66.50;;;10.02;;
46651;SDS011;32377;52.182;5.398;2022-12-24T08:25:33;67.95;;;9.25;;
46651;SDS011;32377;52.182;5.398;2022-12-24T08:27:59;60.25;;;8.63;;
46651;SDS011;32377;52.182;5.398;2022-12-24T08:30:25;60.78;;;9.40;;
46651;SDS011;32377;52.182;5.398;2022-12-24T08:32:51;54.05;;;8.82;;
46651;SDS011;32377;52.182;5.398;2022-12-24T08:35:18;58.50;;;8.02;;
46651;SDS011;32377;52.182;5.398;2022-12-24T08:37:44;59.78;;;9.57;;
46651;SDS011;32377;52.182;5.398;2022-12-24T08:40:10;66.50;;;9.98;;
46651;SDS011;32377;52.182;5.398;2022-12-24T08:42:36;71.85;;;9.65;;
46651;SDS011;32377;52.182;5.398;2022-12-24T08:45:01;61.42;;;9.13;;
46651;SDS011;32377;52.182;5.398;2022-12-24T08:47:27;70.88;;;10.18;;
46651;SDS011;32377;52.182;5.398;2022-12-24T08:49:54;70.53;;;9.57;;
46651;SDS011;32377;52.182;5.398;2022-12-24T08:52:21;59.10;;;8.13;;
46651;SDS011;32377;52.182;5.398;2022-12-24T08:54:46;73.90;;;10.40;;
46651;SDS011;32377;52.182;5.398;2022-12-24T08:57:12;65.95;;;9.75;;
46651;SDS011;32377;52.182;5.398;2022-12-24T08:59:38;67.65;;;8.93;;
46651;SDS011;32377;52.182;5.398;2022-12-24T09:02:04;63.42;;;8.68;;
46651;SDS011;32377;52.182;5.398;2022-12-24T09:04:30;74.53;;;9.80;;
46651;SDS011;32377;52.182;5.398;2022-12-24T09:06:55;60.03;;;9.30;;
46651;SDS011;32377;52.182;5.398;2022-12-24T09:09:21;65.47;;;10.43;;
46651;SDS011;32377;52.182;5.398;2022-12-24T09:11:46;58.00;;;9.27;;
46651;SDS011;32377;52.182;5.398;2022-12-24T09:14:12;53.95;;;9.05;;
46651;SDS011;32377;52.182;5.398;2022-12-24T09:16:38;56.55;;;8.70;;
46651;SDS011;32377;52.182;5.398;2022-12-24T09:19:03;65.65;;;9.70;;
46651;SDS011;32377;52.182;5.398;2022-12-24T09:21:29;50.67;;;8.00;;
46651;SDS011;32377;52.182;5.398;2022-12-24T09:23:55;67.47;;;8.52;;
46651;SDS011;32377;52.182;5.398;2022-12-24T09:26:22;62.65;;;9.75;;
46651;SDS011;32377;52.182;5.398;2022-12-24T09:28:51;54.50;;;9.07;;
46651;SDS011;32377;52.182;5.398;2022-12-24T09:31:17;71.75;;;10.38;;
46651;SDS011;32377;52.182;5.398;2022-12-24T09:33:44;58.33;;;9.43;;
46651;SDS011;32377;52.182;5.398;2022-12-24T09:36:12;50.97;;;8.50;;
46651;SDS011;32377;52.182;5.398;2022-12-24T09:38:38;64.13;;;9.60;;
46651;SDS011;32377;52.182;5.398;2022-12-24T09:41:14;63.28;;;10.07;;
46651;SDS011;32377;52.182;5.398;2022-12-24T09:47:11;63.35;;;9.13;;
46651;SDS011;32377;52.182;5.398;2022-12-24T09:49:46;59.47;;;8.68;;
46651;SDS011;32377;52.182;5.398;2022-12-24T09:52:14;60.15;;;9.02;;
46651;SDS011;32377;52.182;5.398;2022-12-24T09:55:07;61.47;;;8.75;;
46651;SDS011;32377;52.182;5.398;2022-12-24T09:57:49;58.33;;;9.80;;
46651;SDS011;32377;52.182;5.398;2022-12-24T10:00:22;60.65;;;8.45;;
46651;SDS011;32377;52.182;5.398;2022-12-24T10:02:51;55.17;;;8.55;;
46651;SDS011;32377;52.182;5.398;2022-12-24T10:05:17;47.78;;;8.45;;
46651;SDS011;32377;52.182;5.398;2022-12-24T10:07:59;50.53;;;8.57;;
46651;SDS011;32377;52.182;5.398;2022-12-24T10:16:10;57.92;;;8.57;;
46651;SDS011;32377;52.182;5.398;2022-12-24T10:19:12;56.72;;;8.25;;
46651;SDS011;32377;52.182;5.398;2022-12-24T10:22:03;38.58;;;7.13;;
46651;SDS011;32377;52.182;5.398;2022-12-24T10:24:55;46.10;;;8.02;;
46651;SDS011;32377;52.182;5.398;2022-12-24T10:27:23;54.60;;;7.53;;
46651;SDS011;32377;52.182;5.398;2022-12-24T10:29:59;47.15;;;7.90;;
46651;SDS011;32377;52.182;5.398;2022-12-24T10:32:29;41.67;;;7.50;;
46651;SDS011;32377;52.182;5.398;2022-12-24T10:34:58;45.83;;;7.13;;
46651;SDS011;32377;52.182;5.398;2022-12-24T10:37:39;49.63;;;7.60;;
46651;SDS011;32377;52.182;5.398;2022-12-24T10:40:10;45.55;;;7.18;;
46651;SDS011;32377;52.182;5.398;2022-12-24T10:42:44;43.20;;;7.55;;
46651;SDS011;32377;52.182;5.398;2022-12-24T10:45:14;41.53;;;6.55;;
46651;SDS011;32377;52.182;5.398;2022-12-24T10:47:43;52.70;;;8.10;;
46651;SDS011;32377;52.182;5.398;2022-12-24T10:50:17;52.90;;;8.27;;
46651;SDS011;32377;52.182;5.398;2022-12-24T10:52:52;56.22;;;9.45;;
46651;SDS011;32377;52.182;5.398;2022-12-24T10:55:22;55.13;;;8.93;;
46651;SDS011;32377;52.182;5.398;2022-12-24T10:58:04;57.55;;;7.70;;
46651;SDS011;32377;52.182;5.398;2022-12-24T11:00:35;53.00;;;7.68;;
46651;SDS011;32377;52.182;5.398;2022-12-24T11:05:38;45.78;;;7.07;;
46651;SDS011;32377;52.182;5.398;2022-12-24T11:10:41;42.13;;;6.15;;
46651;SDS011;32377;52.182;5.398;2022-12-24T11:18:45;39.70;;;7.40;;
46651;SDS011;32377;52.182;5.398;2022-12-24T11:21:23;55.25;;;7.45;;
46651;SDS011;32377;52.182;5.398;2022-12-24T11:23:52;42.03;;;6.80;;
46651;SDS011;32377;52.182;5.398;2022-12-24T11:26:25;46.20;;;6.18;;
46651;SDS011;32377;52.182;5.398;2022-12-24T11:29:12;42.92;;;6.25;;
46651;SDS011;32377;52.182;5.398;2022-12-24T11:31:52;44.50;;;6.35;;
46651;SDS011;32377;52.182;5.398;2022-12-24T11:34:41;36.88;;;6.30;;
46651;SDS011;32377;52.182;5.398;2022-12-24T11:37:15;44.17;;;7.75;;
46651;SDS011;32377;52.182;5.398;2022-12-24T11:40:19;30.33;;;5.65;;
46651;SDS011;32377;52.182;5.398;2022-12-24T11:42:44;34.58;;;5.57;;
46651;SDS011;32377;52.182;5.398;2022-12-24T11:45:16;37.53;;;6.03;;
46651;SDS011;32377;52.182;5.398;2022-12-24T11:47:46;31.67;;;5.53;;
46651;SDS011;32377;52.182;5.398;2022-12-24T11:53:35;34.97;;;5.88;;
46651;SDS011;32377;52.182;5.398;2022-12-24T11:55:49;41.63;;;5.95;;
46651;SDS011;32377;52.182;5.398;2022-12-24T11:58:31;43.00;;;6.13;;
46651;SDS011;32377;52.182;5.398;2022-12-24T12:03:57;38.47;;;7.40;;
46651;SDS011;32377;52.182;5.398;2022-12-24T12:06:32;37.67;;;6.60;;
46651;SDS011;32377;52.182;5.398;2022-12-24T12:09:06;38.72;;;6.20;;
46651;SDS011;32377;52.182;5.398;2022-12-24T12:11:47;33.08;;;5.05;;
46651;SDS011;32377;52.182;5.398;2022-12-24T12:14:20;42.92;;;6.18;;
46651;SDS011;32377;52.182;5.398;2022-12-24T12:17:00;37.45;;;5.43;;
46651;SDS011;32377;52.182;5.398;2022-12-24T12:19:41;32.08;;;5.18;;
46651;SDS011;32377;52.182;5.398;2022-12-24T12:22:14;29.02;;;4.20;;
46651;SDS011;32377;52.182;5.398;2022-12-24T12:24:52;39.55;;;6.80;;
46651;SDS011;32377;52.182;5.398;2022-12-24T12:27:31;30.92;;;5.05;;
46651;SDS011;32377;52.182;5.398;2022-12-24T12:30:03;40.72;;;6.78;;
46651;SDS011;32377;52.182;5.398;2022-12-24T12:32:36;33.00;;;5.28;;
46651;SDS011;32377;52.182;5.398;2022-12-24T12:35:25;36.67;;;5.70;;
46651;SDS011;32377;52.182;5.398;2022-12-24T12:37:56;32.08;;;5.28;;
46651;SDS011;32377;52.182;5.398;2022-12-24T12:40:31;28.88;;;4.30;;
46651;SDS011;32377;52.182;5.398;2022-12-24T12:56:39;32.67;;;5.47;;
46651;SDS011;32377;52.182;5.398;2022-12-24T13:12:51;23.25;;;4.88;;
46651;SDS011;32377;52.182;5.398;2022-12-24T13:15:44;33.20;;;5.78;;
46651;SDS011;32377;52.182;5.398;2022-12-24T13:21:17;39.05;;;4.88;;
46651;SDS011;32377;52.182;5.398;2022-12-24T13:23:47;31.02;;;4.78;;
46651;SDS011;32377;52.182;5.398;2022-12-24T13:26:13;27.95;;;4.75;;
46651;SDS011;32377;52.182;5.398;2022-12-24T13:28:39;36.38;;;5.97;;
46651;SDS011;32377;52.182;5.398;2022-12-24T13:36:10;33.20;;;5.97;;
46651;SDS011;32377;52.182;5.398;2022-12-24T13:44:20;34.40;;;6.05;;
46651;SDS011;32377;52.182;5.398;2022-12-24T13:49:40;26.30;;;5.03;;
46651;SDS011;32377;52.182;5.398;2022-12-24T13:54:47;38.83;;;5.45;;
46651;SDS011;32377;52.182;5.398;2022-12-24T14:02:51;31.02;;;5.00;;
46651;SDS011;32377;52.182;5.398;2022-12-24T14:05:23;35.63;;;5.32;;
46651;SDS011;32377;52.182;5.398;2022-12-24T14:07:50;38.65;;;5.18;;
46651;SDS011;32377;52.182;5.398;2022-12-24T14:10:20;30.77;;;5.65;;
46651;SDS011;32377;52.182;5.398;2022-12-24T14:12:52;28.17;;;4.68;;
46651;SDS011;32377;52.182;5.398;2022-12-24T14:15:43;30.08;;;4.97;;
46651;SDS011;32377;52.182;5.398;2022-12-24T14:18:18;33.17;;;5.82;;
46651;SDS011;32377;52.182;5.398;2022-12-24T14:20:56;32.05;;;5.30;;
46651;SDS011;32377;52.182;5.398;2022-12-24T14:23:32;27.83;;;4.70;;
46651;SDS011;32377;52.182;5.398;2022-12-24T14:26:07;30.40;;;5.90;;
46651;SDS011;32377;52.182;5.398;2022-12-24T14:28:40;29.67;;;4.95;;
46651;SDS011;32377;52.182;5.398;2022-12-24T14:31:33;28.13;;;6.30;;
46651;SDS011;32377;52.182;5.398;2022-12-24T14:34:05;33.15;;;5.65;;
46651;SDS011;32377;52.182;5.398;2022-12-24T14:36:32;27.48;;;4.80;;
46651;SDS011;32377;52.182;5.398;2022-12-24T14:38:58;25.23;;;3.95;;
46651;SDS011;32377;52.182;5.398;2022-12-24T14:41:39;37.97;;;5.65;;
46651;SDS011;32377;52.182;5.398;2022-12-24T14:44:24;25.17;;;5.82;;
46651;SDS011;32377;52.182;5.398;2022-12-24T14:46:54;31.35;;;5.47;;
46651;SDS011;32377;52.182;5.398;2022-12-24T14:49:26;37.75;;;5.07;;
46651;SDS011;32377;52.182;5.398;2022-12-24T14:52:11;31.95;;;5.78;;
46651;SDS011;32377;52.182;5.398;2022-12-24T14:54:48;39.00;;;6.68;;
46651;SDS011;32377;52.182;5.398;2022-12-24T14:57:17;41.97;;;6.45;;
46651;SDS011;32377;52.182;5.398;2022-12-24T14:59:51;33.90;;;6.43;;
46651;SDS011;32377;52.182;5.398;2022-12-24T15:02:28;37.88;;;7.88;;
46651;SDS011;32377;52.182;5.398;2022-12-24T15:05:10;35.80;;;6.55;;
46651;SDS011;32377;52.182;5.398;2022-12-24T15:07:45;42.47;;;6.97;;
46651;SDS011;32377;52.182;5.398;2022-12-24T15:10:24;36.17;;;6.80;;
46651;SDS011;32377;52.182;5.398;2022-12-24T15:12:53;39.25;;;7.72;;
46651;SDS011;32377;52.182;5.398;2022-12-24T15:15:26;36.15;;;7.43;;
46651;SDS011;32377;52.182;5.398;2022-12-24T15:17:52;47.20;;;8.05;;
46651;SDS011;32377;52.182;5.398;2022-12-24T15:20:20;39.70;;;8.52;;
46651;SDS011;32377;52.182;5.398;2022-12-24T15:22:49;42.38;;;8.07;;
46651;SDS011;32377;52.182;5.398;2022-12-24T15:25:20;40.20;;;6.97;;
46651;SDS011;32377;52.182;5.398;2022-12-24T15:27:47;45.03;;;9.52;;
46651;SDS011;32377;52.182;5.398;2022-12-24T15:30:15;56.28;;;9.40;;
46651;SDS011;32377;52.182;5.398;2022-12-24T15:32:43;45.38;;;9.63;;
46651;SDS011;32377;52.182;5.398;2022-12-24T15:37:58;39.17;;;8.77;;
46651;SDS011;32377;52.182;5.398;2022-12-24T15:40:25;44.13;;;8.10;;
46651;SDS011;32377;52.182;5.398;2022-12-24T15:42:52;41.53;;;8.23;;
46651;SDS011;32377;52.182;5.398;2022-12-24T15:45:22;50.47;;;8.02;;
46651;SDS011;32377;52.182;5.398;2022-12-24T15:47:54;40.58;;;8.57;;
46651;SDS011;32377;52.182;5.398;2022-12-24T15:50:31;42.88;;;8.88;;
46651;SDS011;32377;52.182;5.398;2022-12-24T15:53:12;43.97;;;9.65;;
46651;SDS011;32377;52.182;5.398;2022-12-24T15:55:44;48.20;;;10.93;;
46651;SDS011;32377;52.182;5.398;2022-12-24T15:58:15;39.58;;;9.90;;
46651;SDS011;32377;52.182;5.398;2022-12-24T16:03:38;45.28;;;9.00;;
46651;SDS011;32377;52.182;5.398;2022-12-24T16:06:24;52.90;;;10.05;;
46651;SDS011;32377;52.182;5.398;2022-12-24T16:08:52;42.50;;;8.88;;
46651;SDS011;32377;52.182;5.398;2022-12-24T16:11:21;47.22;;;12.23;;
46651;SDS011;32377;52.182;5.398;2022-12-24T16:14:08;54.08;;;11.13;;
46651;SDS011;32377;52.182;5.398;2022-12-24T16:16:42;55.90;;;9.98;;
46651;SDS011;32377;52.182;5.398;2022-12-24T16:19:16;57.53;;;9.52;;
46651;SDS011;32377;52.182;5.398;2022-12-24T16:21:45;50.83;;;8.75;;
46651;SDS011;32377;52.182;5.398;2022-12-24T16:24:17;50.22;;;9.65;;
46651;SDS011;32377;52.182;5.398;2022-12-24T16:26:46;47.53;;;10.18;;
46651;SDS011;32377;52.182;5.398;2022-12-24T16:29:12;54.95;;;11.18;;
46651;SDS011;32377;52.182;5.398;2022-12-24T16:31:43;49.00;;;11.65;;
46651;SDS011;32377;52.182;5.398;2022-12-24T16:34:10;54.42;;;14.75;;
46651;SDS011;32377;52.182;5.398;2022-12-24T16:36:41;47.92;;;13.02;;
46651;SDS011;32377;52.182;5.398;2022-12-24T16:39:12;53.25;;;11.40;;
46651;SDS011;32377;52.182;5.398;2022-12-24T16:41:47;43.08;;;9.60;;